Time;durP1;ratioP1;P1;durP2;ratioP2;P2;SDS_P1;SDS_P2;PMS_P1;PMS_P2;Temp;Humidity;BMP_temperature;BMP_pressure;BME280_temperature;BME280_humidity;BME280_pressure;Samples;Min_cycle;Max_cycle;Signal;HPM_P1;HPM_P2
2024/03/26 00:02:21;;;;;;;;;;;;;;;8.98;49.14;99637.66;4942698;28;120133;-67
2024/03/26 00:04:47;;;;;;;;;;;;;;;8.98;49.60;99643.03;4965322;28;98046;-72
2024/03/26 00:07:13;;;;;;;;;;;;;;;8.96;49.59;99639.84;4957625;28;132561;-68
2024/03/26 00:09:39;;;;;;;;;;;;;;;8.95;49.19;99642.78;4956081;28;103618;-67
2024/03/26 00:12:05;;;;;;;;;;;;;;;8.94;49.85;99631.22;4955314;27;98445;-72
2024/03/26 00:14:31;;;;;;;;;;;;;;;8.93;49.46;99634.19;4974277;28;98110;-67
2024/03/26 00:16:57;;;;;;;;;;;;;;;8.91;49.80;99626.41;4970400;27;126793;-72
2024/03/26 00:19:23;;;;;;;;;;;;;;;8.90;49.65;99624.78;4989550;27;103255;-67
2024/03/26 00:21:49;;;;;;;;;;;;;;;8.88;49.56;99626.94;4934172;28;98906;-67
2024/03/26 00:24:15;;;;;;;;;;;;;;;8.83;50.16;99633.16;4960340;27;98172;-67
2024/03/26 00:26:41;;;;;;;;;;;;;;;8.82;49.69;99630.75;4944321;27;126999;-67
2024/03/26 00:29:07;;;;;;;;;;;;;;;8.78;49.71;99625.13;4957206;27;106875;-67
2024/03/26 00:31:33;;;;;;;;;;;;;;;8.77;49.21;99633.47;4976590;27;97954;-72
2024/03/26 00:34:03;;;;;;;;;;;;;;;8.74;49.38;99624.06;4971681;27;98387;-72
2024/03/26 00:36:30;;;;;;;;;;;;;;;8.72;49.33;99626.19;4974260;27;103343;-72
2024/03/26 00:38:56;;;;;;;;;;;;;;;8.70;49.39;99627.56;4965557;27;98253;-67
2024/03/26 00:41:22;;;;;;;;;;;;;;;8.68;49.85;99627.03;4965735;28;124087;-67
2024/03/26 00:43:48;;;;;;;;;;;;;;;8.66;49.39;99627.31;4977746;27;103823;-67
2024/03/26 00:46:14;;;;;;;;;;;;;;;8.65;49.57;99624.91;4959329;27;98577;-72
2024/03/26 00:48:40;;;;;;;;;;;;;;;8.63;49.77;99624.38;4963004;28;98067;-72
2024/03/26 00:51:06;;;;;;;;;;;;;;;8.60;49.62;99620.34;4959531;27;126877;-72
2024/03/26 00:53:33;;;;;;;;;;;;;;;8.58;49.33;99617.13;4976717;28;98628;-70
2024/03/26 00:55:59;;;;;;;;;;;;;;;8.58;49.19;99611.78;4958226;27;98159;-73
2024/03/26 00:58:25;;;;;;;;;;;;;;;8.55;49.31;99613.09;4983389;28;122316;-67
2024/03/26 01:00:51;;;;;;;;;;;;;;;8.55;49.52;99612.31;4962736;27;123266;-67
2024/03/26 01:03:17;;;;;;;;;;;;;;;8.55;49.00;99609.63;4943274;28;106417;-67
2024/03/26 01:05:53;;;;;;;;;;;;;;;8.52;49.53;99610.16;4976047;28;99612;-72
2024/03/26 01:08:19;;;;;;;;;;;;;;;8.50;49.12;99610.44;4945017;28;98346;-67
2024/03/26 01:10:46;;;;;;;;;;;;;;;8.50;49.58;99602.41;4976703;27;98450;-72
2024/03/26 01:13:12;;;;;;;;;;;;;;;8.49;49.46;99594.59;4951537;27;98635;-72
2024/03/26 01:15:38;;;;;;;;;;;;;;;8.47;49.56;99604.81;4958473;28;120455;-72
2024/03/26 01:18:04;;;;;;;;;;;;;;;8.47;49.46;99602.13;4966765;27;98938;-67
2024/03/26 01:20:30;;;;;;;;;;;;;;;8.45;49.77;99602.41;4957822;28;102203;-67
2024/03/26 01:22:57;;;;;;;;;;;;;;;8.44;49.47;99592.72;4957482;27;98061;-67
2024/03/26 01:25:23;;;;;;;;;;;;;;;8.41;49.36;99587.94;4977441;27;98295;-72
2024/03/26 01:27:49;;;;;;;;;;;;;;;8.41;49.50;99592.47;4975047;28;127554;-73
2024/03/26 01:30:15;;;;;;;;;;;;;;;8.39;49.93;99595.44;4974155;27;103296;-72
2024/03/26 01:32:41;;;;;;;;;;;;;;;8.38;49.17;99585.78;4975785;27;98034;-72
2024/03/26 01:35:07;;;;;;;;;;;;;;;8.35;49.27;99587.09;4971408;28;127405;-72
2024/03/26 01:37:33;;;;;;;;;;;;;;;8.34;49.74;99588.19;4976616;27;99786;-72
2024/03/26 01:39:59;;;;;;;;;;;;;;;8.33;49.89;99580.38;4962926;28;98225;-67
2024/03/26 01:42:25;;;;;;;;;;;;;;;8.32;49.89;99587.63;4959156;27;98245;-67
2024/03/26 01:44:51;;;;;;;;;;;;;;;8.30;49.88;99581.75;4977576;27;103207;-67
2024/03/26 01:47:17;;;;;;;;;;;;;;;8.30;49.48;99572.91;4970882;28;99907;-71
2024/03/26 01:49:44;;;;;;;;;;;;;;;8.28;49.14;99572.34;4977976;27;97925;-67
2024/03/26 01:52:10;;;;;;;;;;;;;;;8.26;49.17;99575.31;4955931;28;100588;-72
2024/03/26 01:54:37;;;;;;;;;;;;;;;8.25;49.26;99565.66;4967625;27;104192;-73
2024/03/26 01:57:02;;;;;;;;;;;;;;;8.24;49.57;99560.53;4950813;28;100330;-67
2024/03/26 01:59:28;;;;;;;;;;;;;;;8.22;49.45;99562.72;4973631;28;114092;-73
2024/03/26 02:01:54;;;;;;;;;;;;;;;8.20;49.62;99562.16;4960463;28;119608;-73
2024/03/26 02:04:20;;;;;;;;;;;;;;;8.19;49.78;99555.22;4971338;28;98153;-72
2024/03/26 02:06:46;;;;;;;;;;;;;;;8.17;49.33;99560.03;4967475;27;130190;-67
2024/03/26 02:09:12;;;;;;;;;;;;;;;8.16;48.99;99553.84;4943291;27;126656;-72
2024/03/26 02:11:40;;;;;;;;;;;;;;;8.14;49.71;99550.66;4961724;27;98531;-67
2024/03/26 02:14:06;;;;;;;;;;;;;;;8.12;49.51;99553.59;4955706;28;98085;-67
2024/03/26 02:16:31;;;;;;;;;;;;;;;8.10;49.47;99555.75;4974417;27;101432;-73
2024/03/26 02:18:57;;;;;;;;;;;;;;;8.10;49.60;99561.13;4961588;28;114971;-67
2024/03/26 02:21:23;;;;;;;;;;;;;;;8.07;49.11;99553.63;4975572;28;110083;-72
2024/03/26 02:23:49;;;;;;;;;;;;;;;8.07;49.30;99556.31;4967438;27;98304;-73
2024/03/26 02:26:19;;;;;;;;;;;;;;;8.05;49.43;99557.63;4973148;28;110018;-67
2024/03/26 02:28:45;;;;;;;;;;;;;;;8.05;49.57;99550.38;4978200;27;98106;-72
2024/03/26 02:31:11;;;;;;;;;;;;;;;8.04;48.99;99551.47;4958941;27;98308;-67
2024/03/26 02:33:37;;;;;;;;;;;;;;;8.03;49.73;99551.75;4955798;28;130963;-67
2024/03/26 02:36:03;;;;;;;;;;;;;;;8.01;49.13;99552.00;4959958;27;98570;-67
2024/03/26 02:38:29;;;;;;;;;;;;;;;8.01;49.77;99554.69;4940287;28;106559;-67
2024/03/26 02:40:55;;;;;;;;;;;;;;;8.01;49.33;99553.91;4964174;27;116418;-67
2024/03/26 02:43:21;;;;;;;;;;;;;;;8.06;49.45;99551.22;4961508;28;129683;-67
2024/03/26 02:45:47;;;;;;;;;;;;;;;8.11;49.37;99556.56;4937722;28;128025;-72
2024/03/26 02:48:13;;;;;;;;;;;;;;;8.16;49.25;99558.44;4972891;27;103353;-67
2024/03/26 02:50:39;;;;;;;;;;;;;;;8.20;49.62;99546.06;4954754;28;120627;-67
2024/03/26 02:53:05;;;;;;;;;;;;;;;8.22;49.85;99551.97;4948599;28;98147;-67
2024/03/26 02:55:31;;;;;;;;;;;;;;;8.24;49.87;99547.13;4944596;27;118078;-67
2024/03/26 02:57:57;;;;;;;;;;;;;;;8.26;49.67;99545.78;4961831;28;125705;-72
2024/03/26 03:00:23;;;;;;;;;;;;;;;8.27;49.92;99538.53;4980326;27;114230;-72
2024/03/26 03:02:49;;;;;;;;;;;;;;;8.27;50.07;99535.84;4939932;28;99648;-73
2024/03/26 03:05:15;;;;;;;;;;;;;;;8.27;49.81;99531.28;4942001;28;100486;-73
2024/03/26 03:07:41;;;;;;;;;;;;;;;8.27;49.66;99533.16;4973366;28;98101;-67
2024/03/26 03:10:08;;;;;;;;;;;;;;;8.27;50.05;99527.78;4955756;27;118171;-73
2024/03/26 03:12:34;;;;;;;;;;;;;;;8.26;49.91;99527.00;4971350;27;98223;-72
2024/03/26 03:15:00;;;;;;;;;;;;;;;8.26;49.83;99523.50;4962433;27;105868;-72
2024/03/26 03:17:26;;;;;;;;;;;;;;;8.24;49.37;99526.44;4959581;28;98540;-72
2024/03/26 03:19:52;;;;;;;;;;;;;;;8.24;49.52;99522.97;4931978;27;97956;-72
2024/03/26 03:22:20;;;;;;;;;;;;;;;8.22;49.88;99515.19;4964767;28;118919;-72
2024/03/26 03:24:46;;;;;;;;;;;;;;;8.22;49.24;99517.06;4956205;28;127553;-67
2024/03/26 03:27:12;;;;;;;;;;;;;;;8.21;49.43;99510.88;4959162;27;110996;-67
2024/03/26 03:29:38;;;;;;;;;;;;;;;8.19;49.64;99507.69;4932695;28;100515;-67
2024/03/26 03:32:04;;;;;;;;;;;;;;;8.19;49.26;99504.19;4957969;27;98074;-67
2024/03/26 03:34:30;;;;;;;;;;;;;;;8.18;49.42;99500.72;4968706;28;117451;-72
2024/03/26 03:36:56;;;;;;;;;;;;;;;8.17;49.69;99499.09;4949047;27;112817;-67
2024/03/26 03:39:22;;;;;;;;;;;;;;;8.16;49.66;99491.31;4955026;28;98074;-67
2024/03/26 03:41:48;;;;;;;;;;;;;;;8.14;49.72;99491.59;4943911;27;99330;-67
2024/03/26 03:44:14;;;;;;;;;;;;;;;8.12;49.45;99488.38;4960561;28;98281;-67
2024/03/26 03:46:40;;;;;;;;;;;;;;;8.11;49.70;99492.94;4963707;28;98312;-67
2024/03/26 03:49:06;;;;;;;;;;;;;;;8.09;49.45;99486.22;4969026;28;102236;-67
2024/03/26 03:51:32;;;;;;;;;;;;;;;8.09;49.88;99491.59;4970463;27;98434;-67
2024/03/26 03:53:58;;;;;;;;;;;;;;;8.07;49.38;99483.03;4925990;27;127919;-67
2024/03/26 03:56:25;;;;;;;;;;;;;;;8.05;49.88;99485.97;4957795;28;97955;-67
2024/03/26 03:58:51;;;;;;;;;;;;;;;8.04;49.22;99473.63;4974428;27;98403;-67
2024/03/26 04:01:16;;;;;;;;;;;;;;;8.03;49.36;99476.59;4959696;28;99176;-67
2024/03/26 04:03:43;;;;;;;;;;;;;;;8.02;49.31;99473.13;4971068;27;129381;-67
2024/03/26 04:06:09;;;;;;;;;;;;;;;8.01;49.91;99473.38;4979245;27;98231;-67
2024/03/26 04:08:35;;;;;;;;;;;;;;;8.00;49.04;99467.22;4977937;27;98856;-73
2024/03/26 04:11:01;;;;;;;;;;;;;;;7.97;49.52;99467.75;4966684;27;98135;-72
2024/03/26 04:13:27;;;;;;;;;;;;;;;7.97;49.58;99456.22;4951601;28;109930;-67
2024/03/26 04:15:53;;;;;;;;;;;;;;;7.96;49.64;99463.47;4961019;27;98740;-73
2024/03/26 04:18:21;;;;;;;;;;;;;;;7.95;49.76;99458.38;4976563;28;111446;-67
2024/03/26 04:20:48;;;;;;;;;;;;;;;7.94;49.55;99462.97;4976886;28;98262;-67
2024/03/26 04:23:13;;;;;;;;;;;;;;;7.93;49.65;99460.53;4979191;27;98408;-72
2024/03/26 04:25:40;;;;;;;;;;;;;;;7.92;49.38;99459.72;4977952;28;127507;-67
2024/03/26 04:28:06;;;;;;;;;;;;;;;7.91;49.56;99457.34;4950697;27;98441;-67
2024/03/26 04:30:32;;;;;;;;;;;;;;;7.90;49.30;99456.53;4948060;28;98376;-72
2024/03/26 04:32:58;;;;;;;;;;;;;;;7.89;49.79;99454.91;4964410;28;130651;-73
2024/03/26 04:35:24;;;;;;;;;;;;;;;7.88;49.49;99453.31;4974779;27;97966;-67
2024/03/26 04:37:50;;;;;;;;;;;;;;;7.88;49.42;99458.66;4960138;28;100196;-72
2024/03/26 04:40:16;;;;;;;;;;;;;;;7.86;49.50;99455.47;4977448;28;105157;-72
2024/03/26 04:42:42;;;;;;;;;;;;;;;7.85;49.16;99460.00;4981981;27;98590;-67
2024/03/26 04:45:09;;;;;;;;;;;;;;;7.86;49.31;99452.78;4964980;28;98308;-72
2024/03/26 04:47:36;;;;;;;;;;;;;;;7.85;50.00;99446.59;4946837;27;98260;-67
2024/03/26 04:50:02;;;;;;;;;;;;;;;7.85;49.25;99443.13;4976070;27;98641;-72
2024/03/26 04:52:28;;;;;;;;;;;;;;;7.83;49.26;99446.06;4976026;27;99378;-73
2024/03/26 04:54:54;;;;;;;;;;;;;;;7.83;49.03;99451.44;4948775;28;121597;-73
2024/03/26 04:57:22;;;;;;;;;;;;;;;7.83;49.38;99454.13;4976500;27;98278;-73
2024/03/26 04:59:48;;;;;;;;;;;;;;;7.83;49.06;99448.75;4955455;27;98134;-67
2024/03/26 05:02:14;;;;;;;;;;;;;;;7.84;49.77;99445.00;4966048;28;98285;-73
2024/03/26 05:04:40;;;;;;;;;;;;;;;7.84;49.47;99441.50;4977777;27;98074;-68
2024/03/26 05:07:06;;;;;;;;;;;;;;;7.86;49.45;99442.06;4965174;28;98206;-68
2024/03/26 05:09:34;;;;;;;;;;;;;;;7.85;49.68;99437.75;4968847;27;98745;-73
2024/03/26 05:12:00;;;;;;;;;;;;;;;7.85;49.46;99435.84;4976565;28;98150;-72
2024/03/26 05:14:25;;;;;;;;;;;;;;;7.88;49.64;99434.53;4959389;27;98008;-73
2024/03/26 05:16:52;;;;;;;;;;;;;;;7.90;49.29;99424.31;4940715;28;119836;-72
2024/03/26 05:19:17;;;;;;;;;;;;;;;7.92;49.25;99427.53;4961210;28;98873;-73
2024/03/26 05:21:44;;;;;;;;;;;;;;;7.95;48.84;99426.19;4947084;27;129278;-73
2024/03/26 05:24:10;;;;;;;;;;;;;;;7.98;49.40;99422.97;4962261;28;99337;-73
2024/03/26 05:26:36;;;;;;;;;;;;;;;8.01;49.35;99425.06;4964893;27;98089;-72
2024/03/26 05:29:02;;;;;;;;;;;;;;;8.05;49.16;99420.75;4976056;27;100982;-67
2024/03/26 05:31:28;;;;;;;;;;;;;;;8.10;48.94;99418.88;4947091;28;99818;-72
2024/03/26 05:33:54;;;;;;;;;;;;;;;8.15;49.42;99417.22;4960761;27;110377;-67
2024/03/26 05:36:20;;;;;;;;;;;;;;;8.20;48.83;99417.19;4955627;28;97874;-73
2024/03/26 05:38:46;;;;;;;;;;;;;;;8.24;49.49;99402.16;4960553;28;127259;-72
2024/03/26 05:41:12;;;;;;;;;;;;;;;8.28;49.56;99403.19;4942229;27;127430;-67
2024/03/26 05:43:38;;;;;;;;;;;;;;;8.33;49.05;99409.34;4972871;27;99701;-67
2024/03/26 05:46:04;;;;;;;;;;;;;;;8.39;49.17;99402.09;4966138;28;120324;-73
2024/03/26 05:48:30;;;;;;;;;;;;;;;8.44;48.68;99402.03;4954226;27;98366;-67
2024/03/26 05:50:56;;;;;;;;;;;;;;;8.50;49.06;99400.16;4972186;27;127161;-72
2024/03/26 05:53:22;;;;;;;;;;;;;;;8.57;48.93;99397.94;4956777;28;124380;-72
2024/03/26 05:55:48;;;;;;;;;;;;;;;8.63;49.11;99398.69;4950159;27;97987;-73
2024/03/26 05:58:14;;;;;;;;;;;;;;;8.69;49.12;99392.22;4949033;28;128135;-67
2024/03/26 06:00:40;;;;;;;;;;;;;;;8.77;48.61;99387.03;4963997;27;99587;-67
2024/03/26 06:03:06;;;;;;;;;;;;;;;8.81;48.39;99382.72;4964507;28;98202;-72
2024/03/26 06:05:32;;;;;;;;;;;;;;;8.90;48.66;99379.41;4974396;28;99278;-67
2024/03/26 06:07:58;;;;;;;;;;;;;;;8.96;49.14;99376.41;4970985;28;117654;-67
2024/03/26 06:10:24;;;;;;;;;;;;;;;9.02;48.96;99375.25;4959315;28;114651;-67
2024/03/26 06:12:50;;;;;;;;;;;;;;;9.07;49.21;99369.81;4958108;27;98010;-72
2024/03/26 06:15:16;;;;;;;;;;;;;;;9.16;48.58;99366.56;4945279;28;120308;-67
2024/03/26 06:17:43;;;;;;;;;;;;;;;9.20;48.55;99360.31;4948732;27;99743;-72
2024/03/26 06:20:10;;;;;;;;;;;;;;;9.28;48.87;99369.66;4947213;28;99041;-72
2024/03/26 06:22:36;;;;;;;;;;;;;;;9.33;48.98;99365.00;4972495;28;98233;-73
2024/03/26 06:25:02;;;;;;;;;;;;;;;9.43;48.32;99368.66;4973084;28;114345;-72
2024/03/26 06:27:28;;;;;;;;;;;;;;;9.51;48.16;99373.41;4937452;28;99884;-72
2024/03/26 06:29:54;;;;;;;;;;;;;;;9.59;48.75;99359.34;4962682;28;99458;-72
2024/03/26 06:32:20;;;;;;;;;;;;;;;9.68;48.38;99356.81;4974355;27;98372;-72
2024/03/26 06:34:47;;;;;;;;;;;;;;;9.78;48.46;99362.88;4956017;27;98198;-73
2024/03/26 06:37:13;;;;;;;;;;;;;;;9.92;48.28;99354.09;4958400;28;98624;-67
2024/03/26 06:39:39;;;;;;;;;;;;;;;10.05;48.49;99350.69;4953524;27;120893;-72
2024/03/26 06:42:06;;;;;;;;;;;;;;;10.20;48.05;99342.38;4942904;28;98055;-67
2024/03/26 06:44:32;;;;;;;;;;;;;;;10.45;48.01;99345.81;4958150;27;98498;-67
2024/03/26 06:46:59;;;;;;;;;;;;;;;10.71;47.87;99340.84;4961852;28;102847;-67
2024/03/26 06:49:25;;;;;;;;;;;;;;;10.91;47.68;99339.69;4955849;28;98295;-67
2024/03/26 06:51:51;;;;;;;;;;;;;;;11.06;48.00;99336.72;4970962;27;100451;-73
2024/03/26 06:54:17;;;;;;;;;;;;;;;11.33;47.63;99338.66;4945354;28;98244;-72
2024/03/26 06:56:43;;;;;;;;;;;;;;;11.49;47.87;99333.75;4977274;28;98262;-68
2024/03/26 06:59:09;;;;;;;;;;;;;;;11.60;47.76;99337.84;4957305;28;99922;-73
2024/03/26 07:01:36;;;;;;;;;;;;;;;11.71;47.75;99328.44;4949344;27;99720;-72
2024/03/26 07:04:02;;;;;;;;;;;;;;;11.79;47.74;99325.03;4956616;27;99380;-73
2024/03/26 07:06:29;;;;;;;;;;;;;;;11.89;47.84;99326.72;4971109;27;98319;-67
2024/03/26 07:08:55;;;;;;;;;;;;;;;11.99;47.85;99323.81;4970683;27;100003;-72
2024/03/26 07:11:21;;;;;;;;;;;;;;;12.16;47.80;99316.97;4967084;28;107559;-67
2024/03/26 07:13:48;;;;;;;;;;;;;;;12.29;47.82;99313.41;4967952;27;104120;-67
2024/03/26 07:16:14;;;;;;;;;;;;;;;12.44;47.64;99314.97;4952709;28;98222;-73
2024/03/26 07:18:40;;;;;;;;;;;;;;;12.59;47.49;99319.22;4967714;27;99829;-72
2024/03/26 07:21:07;;;;;;;;;;;;;;;12.73;47.52;99306.41;4978449;27;98199;-67
2024/03/26 07:23:33;;;;;;;;;;;;;;;12.85;47.62;99311.22;4951335;28;98403;-73
2024/03/26 07:25:59;;;;;;;;;;;;;;;12.97;47.32;99317.69;4951625;27;99928;-73
2024/03/26 07:28:26;;;;;;;;;;;;;;;13.10;47.61;99312.50;4968468;27;98095;-67
2024/03/26 07:30:54;;;;;;;;;;;;;;;13.25;47.41;99304.78;4132956;28;10000794;-72
2024/03/26 07:33:20;;;;;;;;;;;;;;;13.41;47.47;99299.75;4901446;28;98295;-72
2024/03/26 07:35:46;;;;;;;;;;;;;;;13.64;46.90;99296.94;4921778;28;98062;-73
2024/03/26 07:38:12;;;;;;;;;;;;;;;13.85;46.84;99297.91;4933447;28;99035;-67
2024/03/26 07:40:38;;;;;;;;;;;;;;;14.08;47.10;99292.38;4904013;28;98219;-73
2024/03/26 07:43:05;;;;;;;;;;;;;;;14.35;46.71;99285.84;4928116;28;99005;-72
2024/03/26 07:45:31;;;;;;;;;;;;;;;14.66;46.67;99282.94;4021915;28;10000239;-67
2024/03/26 07:47:57;;;;;;;;;;;;;;;14.95;46.65;99282.22;4919137;28;98821;-67
2024/03/26 07:50:23;;;;;;;;;;;;;;;15.24;46.39;99278.72;4940337;28;98331;-73
2024/03/26 07:52:53;;;;;;;;;;;;;;;15.45;46.23;99270.66;4909057;28;101233;-67
2024/03/26 07:55:19;;;;;;;;;;;;;;;15.73;46.14;99273.69;4923002;28;98299;-67
2024/03/26 07:57:45;;;;;;;;;;;;;;;16.07;46.15;99275.38;4903121;28;115383;-67
2024/03/26 08:00:12;;;;;;;;;;;;;;;16.35;45.93;99266.66;4923635;28;98083;-67
2024/03/26 08:02:39;;;;;;;;;;;;;;;16.69;45.71;99265.50;4925669;28;112298;-73
2024/03/26 08:05:05;;;;;;;;;;;;;;;17.08;45.66;99266.03;4924333;28;109641;-67
2024/03/26 08:07:32;;;;;;;;;;;;;;;17.43;45.47;99263.66;4910449;28;98049;-72
2024/03/26 08:09:59;;;;;;;;;;;;;;;17.75;45.36;99261.94;4910073;28;99421;-67
2024/03/26 08:12:25;;;;;;;;;;;;;;;18.31;45.00;99245.66;4907178;28;100059;-72
2024/03/26 08:14:52;;;;;;;;;;;;;;;19.01;44.55;99238.88;4917106;28;103245;-72
2024/03/26 08:17:19;;;;;;;;;;;;;;;19.51;44.23;99235.38;4927042;28;98227;-73
2024/03/26 08:19:45;;;;;;;;;;;;;;;20.20;43.94;99234.88;4938487;28;98663;-67
2024/03/26 08:22:12;;;;;;;;;;;;;;;20.76;43.70;99224.22;4941644;27;100589;-67
2024/03/26 08:24:38;;;;;;;;;;;;;;;21.44;43.40;99222.56;4931516;27;98572;-67
2024/03/26 08:27:05;;;;;;;;;;;;;;;22.08;43.34;99213.59;4940732;27;98275;-67
2024/03/26 08:29:32;;;;;;;;;;;;;;;22.53;43.39;99205.09;4942161;28;98110;-73
2024/03/26 08:31:59;;;;;;;;;;;;;;;22.97;43.42;99209.03;4940581;27;98387;-73
2024/03/26 08:34:25;;;;;;;;;;;;;;;23.45;43.40;99203.47;4946497;27;99086;-73
2024/03/26 08:36:52;;;;;;;;;;;;;;;23.93;43.01;99200.56;4942997;28;98499;-73
2024/03/26 08:39:18;;;;;;;;;;;;;;;24.38;43.30;99192.84;4946452;27;99107;-74
2024/03/26 08:41:44;;;;;;;;;;;;;;;24.88;42.99;99190.19;4944208;28;98158;-72
2024/03/26 08:44:11;;;;;;;;;;;;;;;25.33;42.88;99198.81;4928047;27;98233;-68
2024/03/26 08:46:37;;;;;;;;;;;;;;;25.90;42.85;99190.38;4944373;27;98536;-67
2024/03/26 08:49:04;;;;;;;;;;;;;;;26.30;42.87;99197.28;4943264;27;98396;-67
2024/03/26 08:51:31;;;;;;;;;;;;;;;26.62;42.98;99199.06;4927378;27;98447;-67
2024/03/26 08:54:02;;;;;;;;;;;;;;;26.96;43.12;99184.56;4944603;27;98399;-73
2024/03/26 08:56:28;;;;;;;;;;;;;;;27.63;42.45;99188.69;4950034;27;99658;-68
2024/03/26 08:58:55;;;;;;;;;;;;;;;28.17;42.46;99185.22;4938397;27;98057;-68
2024/03/26 09:01:23;;;;;;;;;;;;;;;28.78;42.10;99174.06;4948361;27;98253;-68
2024/03/26 09:03:50;;;;;;;;;;;;;;;29.28;42.37;99157.34;4968696;28;98054;-73
2024/03/26 09:06:16;;;;;;;;;;;;;;;29.58;42.33;99159.16;4949299;27;97998;-73
2024/03/26 09:08:43;;;;;;;;;;;;;;;30.08;42.40;99152.53;4954642;27;99843;-73
2024/03/26 09:11:12;;;;;;;;;;;;;;;30.61;42.31;99151.75;4963428;27;98831;-73
2024/03/26 09:13:44;;;;;;;;;;;;;;;31.16;41.91;99139.59;4949667;27;98605;-72
2024/03/26 09:16:11;;;;;;;;;;;;;;;31.69;42.00;99129.00;4938411;27;99256;-73
2024/03/26 09:18:37;;;;;;;;;;;;;;;32.15;41.49;99124.06;4946406;27;98155;-73
2024/03/26 09:21:04;;;;;;;;;;;;;;;32.59;41.85;99120.72;4944562;27;98631;-73
2024/03/26 09:23:30;;;;;;;;;;;;;;;33.00;41.95;99119.72;4944799;27;98112;-73
2024/03/26 09:25:57;;;;;;;;;;;;;;;33.45;41.32;99127.69;4949081;27;98078;-73
2024/03/26 09:28:23;;;;;;;;;;;;;;;33.82;41.43;99118.75;4958007;27;98239;-73
2024/03/26 09:30:51;;;;;;;;;;;;;;;34.19;41.38;99120.50;4959405;27;98857;-68
2024/03/26 09:33:21;;;;;;;;;;;;;;;34.61;41.27;99122.78;4959676;27;98162;-68
2024/03/26 09:35:47;;;;;;;;;;;;;;;35.00;41.25;99114.00;4947751;27;98511;-73
2024/03/26 09:38:14;;;;;;;;;;;;;;;35.42;41.03;99105.72;4947885;27;98450;-73
2024/03/26 09:40:40;;;;;;;;;;;;;;;35.85;40.83;99096.13;4946044;27;98134;-68
2024/03/26 09:43:07;;;;;;;;;;;;;;;36.23;41.02;99097.53;4942332;28;98373;-68
2024/03/26 09:45:35;;;;;;;;;;;;;;;36.57;40.83;99087.06;4949839;27;98665;-68
2024/03/26 09:48:04;;;;;;;;;;;;;;;36.82;41.12;99086.56;4946818;28;98188;-68
2024/03/26 09:50:31;;;;;;;;;;;;;;;37.09;40.57;99073.59;4934994;28;99622;-72
2024/03/26 09:53:00;;;;;;;;;;;;;;;37.37;40.45;99076.13;4929338;27;98376;-68
2024/03/26 09:55:28;;;;;;;;;;;;;;;37.65;40.74;99068.19;4935801;27;98712;-69
2024/03/26 09:57:54;;;;;;;;;;;;;;;37.86;40.75;99063.41;4917160;27;98557;-73
2024/03/26 10:00:24;;;;;;;;;;;;;;;38.06;40.56;99057.88;4941312;27;98541;-68
2024/03/26 10:02:51;;;;;;;;;;;;;;;38.41;40.43;99060.66;4942858;27;98374;-72
2024/03/26 10:05:17;;;;;;;;;;;;;;;38.87;39.96;99047.91;4928861;27;98300;-73
2024/03/26 10:07:45;;;;;;;;;;;;;;;39.23;39.67;99033.22;4965362;27;98021;-73
2024/03/26 10:10:12;;;;;;;;;;;;;;;39.47;39.69;99026.50;4948500;28;98501;-73
2024/03/26 10:12:42;;;;;;;;;;;;;;;39.80;39.48;99017.53;4964847;27;98782;-68
2024/03/26 10:15:09;;;;;;;;;;;;;;;40.04;39.44;99019.22;4967196;27;99346;-73
2024/03/26 10:17:36;;;;;;;;;;;;;;;40.25;39.09;99015.00;4947759;27;98222;-65
2024/03/26 10:20:06;;;;;;;;;;;;;;;40.40;39.23;99011.97;4944210;27;99651;-73
2024/03/26 10:22:32;;;;;;;;;;;;;;;40.55;39.20;99003.31;4944437;27;98241;-72
2024/03/26 10:24:59;;;;;;;;;;;;;;;40.67;38.72;99002.06;4941990;27;98342;-72
2024/03/26 10:27:26;;;;;;;;;;;;;;;40.70;39.15;98992.59;4957477;27;104536;-72
2024/03/26 10:29:52;;;;;;;;;;;;;;;40.74;38.58;99001.56;4946327;27;98398;-72
2024/03/26 10:32:23;;;;;;;;;;;;;;;40.87;38.87;98986.97;4942142;28;99119;-67
2024/03/26 10:35:00;;;;;;;;;;;;;;;41.00;38.36;98978.81;4948306;27;98055;-67
2024/03/26 10:37:27;;;;;;;;;;;;;;;40.96;38.50;98972.63;4962606;28;98233;-67
2024/03/26 10:39:59;;;;;;;;;;;;;;;40.94;38.37;98963.88;4945251;27;98197;-67
2024/03/26 10:42:26;;;;;;;;;;;;;;;40.91;38.68;98962.88;4932061;28;98323;-72
2024/03/26 10:44:57;;;;;;;;;;;;;;;40.86;38.94;98968.50;4961415;27;103522;-67
2024/03/26 10:47:24;;;;;;;;;;;;;;;40.81;38.89;98960.78;4939924;28;98219;-72
2024/03/26 10:49:51;;;;;;;;;;;;;;;40.79;39.02;98952.06;4958985;27;100120;-67
2024/03/26 10:52:18;;;;;;;;;;;;;;;40.71;38.95;98949.72;4956664;28;98124;-72
2024/03/26 10:54:45;;;;;;;;;;;;;;;40.64;38.90;98936.13;4958158;27;98648;-67
2024/03/26 10:57:11;;;;;;;;;;;;;;;40.56;39.01;98934.31;4940568;28;98571;-67
2024/03/26 10:59:38;;;;;;;;;;;;;;;40.36;39.08;98927.56;4944674;27;98334;-72
2024/03/26 11:02:04;;;;;;;;;;;;;;;40.07;39.22;98914.63;4937260;27;98808;-67
2024/03/26 11:04:30;;;;;;;;;;;;;;;39.77;39.51;98914.22;4944394;28;100831;-67
2024/03/26 11:06:58;;;;;;;;;;;;;;;39.48;39.63;98918.16;4940623;27;98719;-66
2024/03/26 11:09:25;;;;;;;;;;;;;;;39.26;39.69;98913.94;4957201;27;99385;-72
2024/03/26 11:11:52;;;;;;;;;;;;;;;39.23;39.71;98920.56;4942633;27;98351;-72
2024/03/26 11:14:19;;;;;;;;;;;;;;;39.26;39.33;98915.94;4942524;27;98122;-67
2024/03/26 11:16:46;;;;;;;;;;;;;;;39.27;39.25;98918.28;4940722;27;98411;-72
2024/03/26 11:19:24;;;;;;;;;;;;;;;39.18;39.31;98926.88;4942616;27;98107;-67
2024/03/26 11:21:51;;;;;;;;;;;;;;;39.10;39.23;98931.41;4937695;27;98277;-67
2024/03/26 11:24:24;;;;;;;;;;;;;;;38.93;39.22;98919.25;4941858;27;98281;-67
2024/03/26 11:26:51;;;;;;;;;;;;;;;38.70;39.40;98918.25;4974642;27;98053;-72
2024/03/26 11:29:18;;;;;;;;;;;;;;;38.33;39.86;98910.47;4937559;27;98756;-67
2024/03/26 11:31:45;;;;;;;;;;;;;;;37.99;39.96;98895.97;4923421;28;100224;-72
2024/03/26 11:34:15;;;;;;;;;;;;;;;37.75;40.28;98896.16;4957629;27;98600;-72
2024/03/26 11:36:42;;;;;;;;;;;;;;;37.55;39.88;98876.50;4944389;27;98251;-66
2024/03/26 11:39:09;;;;;;;;;;;;;;;37.24;40.06;98885.47;4940371;27;98818;-71
2024/03/26 11:41:36;;;;;;;;;;;;;;;37.05;40.56;98868.06;4922373;27;98054;-67
2024/03/26 11:44:02;;;;;;;;;;;;;;;36.87;40.57;98860.63;4961591;27;98324;-72
2024/03/26 11:46:28;;;;;;;;;;;;;;;36.74;40.02;98863.72;4923066;27;98502;-72
2024/03/26 11:48:58;;;;;;;;;;;;;;;36.54;40.46;98867.19;4956780;28;98474;-67
2024/03/26 11:51:25;;;;;;;;;;;;;;;36.35;40.34;98855.38;4922365;27;98347;-67
2024/03/26 11:53:51;;;;;;;;;;;;;;;36.14;40.10;98854.47;4923851;27;98363;-67
2024/03/26 11:56:17;;;;;;;;;;;;;;;35.95;40.47;98853.03;4945270;27;99904;-72
2024/03/26 11:58:47;;;;;;;;;;;;;;;35.79;40.59;98847.88;4946155;28;98562;-72
2024/03/26 12:01:15;;;;;;;;;;;;;;;35.71;40.69;98838.28;4958379;27;99804;-72
2024/03/26 12:03:54;;;;;;;;;;;;;;;35.61;40.62;98837.59;4948777;27;98166;-72
2024/03/26 12:06:23;;;;;;;;;;;;;;;35.48;40.54;98823.78;4945246;27;99733;-67
2024/03/26 12:08:54;;;;;;;;;;;;;;;35.32;40.43;98818.59;4077361;27;10000493;-67
2024/03/26 12:11:20;;;;;;;;;;;;;;;35.19;40.50;98824.44;4938334;27;98767;-72
2024/03/26 12:13:47;;;;;;;;;;;;;;;35.09;40.41;98811.72;4974176;27;102970;-71
2024/03/26 12:16:23;;;;;;;;;;;;;;;35.01;40.62;98814.09;4940466;27;99344;-66
2024/03/26 12:18:54;;;;;;;;;;;;;;;34.87;40.51;98814.75;4956277;27;98222;-71
2024/03/26 12:21:27;;;;;;;;;;;;;;;34.66;40.30;98813.72;4953629;27;98416;-66
2024/03/26 12:23:54;;;;;;;;;;;;;;;34.41;40.83;98815.63;4957212;28;98529;-66
2024/03/26 12:26:20;;;;;;;;;;;;;;;34.17;40.69;98809.16;4959061;27;98096;-66
2024/03/26 12:28:47;;;;;;;;;;;;;;;33.92;40.50;98810.25;4941211;27;98126;-71
2024/03/26 12:31:17;;;;;;;;;;;;;;;33.66;40.69;98815.34;4946151;27;99490;-66
2024/03/26 12:33:44;;;;;;;;;;;;;;;33.36;40.53;98808.59;4941909;27;98206;-71
2024/03/26 12:36:11;;;;;;;;;;;;;;;33.07;40.86;98795.81;4948138;27;98603;-71
2024/03/26 12:38:38;;;;;;;;;;;;;;;32.77;41.31;98805.72;4946730;27;98220;-66
2024/03/26 12:41:05;;;;;;;;;;;;;;;32.57;41.21;98791.38;4945308;27;98272;-66
2024/03/26 12:43:33;;;;;;;;;;;;;;;32.27;41.03;98788.09;4946198;27;99026;-71
2024/03/26 12:46:00;;;;;;;;;;;;;;;32.03;41.19;98779.41;4934306;27;98139;-71